In Rescue
 
Open Full Screen Window  High Contrast Mode
Wind Gusting 00 knots
08
September 21, 2019 7:56 AM CDT
Weather Information
Wind Direction
  180 °
Wind Speed
  08 kt (9 mph)
Wind Gust
  00 kt (0 mph)
Altimeter
29.71 in
Visibility
10 SM
Temperature
21° C
70° F
Dewpoint
19° C
66° F
Humidity
88%
1hr Rain Fall
00.00 in.
24hr Rain Fall
00.01 in.
Sky Condition
Broken @ 2,500 ft
Scattered @ 1,500 ft
MVFR

METAR KBBB 211256Z AUTO 18008KT 10SM SCT015 BKN025 21/19 A2971 RMK AO2

FAA Disclaimer: The data displayed is for advisory purposes only and is not to be used for flight planning or operations.